Hauptseite
METAR-TAF:

METAR-TAF

Flughäfen :

Arviat, Nunavut, Kanada

Breite: 61-06N, Länge: 094-04W, Höhe: 10 m

Beobachtung

Neuester Wetterbericht von vor 44 Minuten, um 17:00 UTC
Wind 9 kt aus Ost/Nordost
Temperatur 8°C
Luftfeuchtigkeit 76%
Luftdruck 1019 hPa
Sichtweite: 24.1 km
Himmel klar

METAR: CYEK 231700Z 06009KT 15SM SKC 08/04 A3009 RMK SLP191

Zeit: 12:44 (17:44 UTC)

Prognose

Neuester Wetterbericht von vor 6 Minuten, um 17:38 UTC
Gültige Prognose vom 23 um 18 UTC bis 24 um 06 UTC
Wind 10 kt aus Ost/Nordost
Sichtweite: 10 km
Himmel klar
Übergehend zu
vom 23 um 22 UTC bis 23 um 24 UTC
Wind 10 kt aus Südost
Übergehend zu
vom 24 um 02 UTC bis 24 um 04 UTC
Wind 10 kt aus Süd

TAF: CYEK 231738Z 2318/2406 06010KT P6SM SKC BECMG 2322/2324 14010KT BECMG 2402/2404 18010KT RMK NXT FCST BY 240000Z

Wetterbeobachtungen und Prognosen von mehr als 4000 Flughäfen (METAR und TAF Bericht).

Die verfügbaren Stationen werden durch gelbe und rote Markierungen auf der Karte dargestellt.

Führen Sie die Maus auf sie, um den Namen der Station zu sehen.

Darauf klicken, um die Beobachtung von Wetterbeobachtungen und Prognosen zu sehen.

Um die Karte zu ändern : klicken Sie auf den grünen Tasten mit einem schwarzen Kreuz Zum Vergrößern, auf den grünen Button mit einem Gedankenstrich zu verkleinern, oder auf die grünen Pfeile für benachbarte Karten.


METAR-TAF: